sensor_id;sensor_type;location;lat;lon;timestamp;temperature;humidity
44855;DHT22;30591;48.228;16.398;2022-07-17T00:01:58;20.00;99.90
44855;DHT22;30591;48.228;16.398;2022-07-17T00:04:25;20.10;99.90
44855;DHT22;30591;48.228;16.398;2022-07-17T00:06:52;20.40;99.90
44855;DHT22;30591;48.228;16.398;2022-07-17T00:09:19;20.20;99.90
44855;DHT22;30591;48.228;16.398;2022-07-17T00:11:46;20.40;99.90
44855;DHT22;30591;48.228;16.398;2022-07-17T00:14:13;20.60;99.90
44855;DHT22;30591;48.228;16.398;2022-07-17T00:16:40;20.80;99.90
44855;DHT22;30591;48.228;16.398;2022-07-17T00:19:07;20.50;99.90
44855;DHT22;30591;48.228;16.398;2022-07-17T00:21:34;20.70;99.90
44855;DHT22;30591;48.228;16.398;2022-07-17T00:24:01;20.50;99.90
44855;DHT22;30591;48.228;16.398;2022-07-17T00:26:28;20.60;99.90
44855;DHT22;30591;48.228;16.398;2022-07-17T00:28:54;20.80;99.90
44855;DHT22;30591;48.228;16.398;2022-07-17T00:31:21;20.70;99.90
44855;DHT22;30591;48.228;16.398;2022-07-17T00:33:48;20.60;99.90
44855;DHT22;30591;48.228;16.398;2022-07-17T00:36:15;20.70;99.90
44855;DHT22;30591;48.228;16.398;2022-07-17T00:38:42;20.70;99.90
44855;DHT22;30591;48.228;16.398;2022-07-17T00:41:09;20.70;99.90
44855;DHT22;30591;48.228;16.398;2022-07-17T00:43:36;20.80;99.90
44855;DHT22;30591;48.228;16.398;2022-07-17T00:46:05;20.80;99.90
44855;DHT22;30591;48.228;16.398;2022-07-17T00:48:32;20.90;99.90
44855;DHT22;30591;48.228;16.398;2022-07-17T00:50:59;21.00;99.90
44855;DHT22;30591;48.228;16.398;2022-07-17T00:53:27;20.90;99.90
44855;DHT22;30591;48.228;16.398;2022-07-17T00:55:55;20.90;99.90
44855;DHT22;30591;48.228;16.398;2022-07-17T00:58:24;20.90;99.90
44855;DHT22;30591;48.228;16.398;2022-07-17T01:00:53;20.50;99.90
44855;DHT22;30591;48.228;16.398;2022-07-17T01:03:23;20.20;99.90
44855;DHT22;30591;48.228;16.398;2022-07-17T01:05:51;20.00;99.90
44855;DHT22;30591;48.228;16.398;2022-07-17T01:08:18;20.00;99.90
44855;DHT22;30591;48.228;16.398;2022-07-17T01:10:45;20.00;99.90
44855;DHT22;30591;48.228;16.398;2022-07-17T01:13:12;20.20;99.90
44855;DHT22;30591;48.228;16.398;2022-07-17T01:15:40;19.90;99.90
44855;DHT22;30591;48.228;16.398;2022-07-17T01:18:10;19.90;99.90
44855;DHT22;30591;48.228;16.398;2022-07-17T01:20:39;20.00;99.90
44855;DHT22;30591;48.228;16.398;2022-07-17T01:23:06;20.10;99.90
44855;DHT22;30591;48.228;16.398;2022-07-17T01:25:34;20.10;99.90
44855;DHT22;30591;48.228;16.398;2022-07-17T01:28:02;20.10;99.90
44855;DHT22;30591;48.228;16.398;2022-07-17T01:30:29;20.20;99.90
44855;DHT22;30591;48.228;16.398;2022-07-17T01:32:56;19.80;99.90
44855;DHT22;30591;48.228;16.398;2022-07-17T01:35:23;19.60;99.90
44855;DHT22;30591;48.228;16.398;2022-07-17T01:37:50;19.60;99.90
44855;DHT22;30591;48.228;16.398;2022-07-17T01:40:17;19.80;99.90
44855;DHT22;30591;48.228;16.398;2022-07-17T01:42:47;19.80;99.90
44855;DHT22;30591;48.228;16.398;2022-07-17T01:45:15;19.90;99.90
44855;DHT22;30591;48.228;16.398;2022-07-17T01:47:43;20.00;99.90
44855;DHT22;30591;48.228;16.398;2022-07-17T01:50:11;20.00;99.90
44855;DHT22;30591;48.228;16.398;2022-07-17T01:52:40;20.00;99.90
44855;DHT22;30591;48.228;16.398;2022-07-17T01:55:09;20.20;99.90
44855;DHT22;30591;48.228;16.398;2022-07-17T01:57:36;20.00;99.90
44855;DHT22;30591;48.228;16.398;2022-07-17T02:00:06;20.10;99.90
44855;DHT22;30591;48.228;16.398;2022-07-17T02:02:33;20.10;99.90
44855;DHT22;30591;48.228;16.398;2022-07-17T02:05:01;20.00;99.90
44855;DHT22;30591;48.228;16.398;2022-07-17T02:07:27;20.00;99.90
44855;DHT22;30591;48.228;16.398;2022-07-17T02:09:54;20.20;99.90
44855;DHT22;30591;48.228;16.398;2022-07-17T02:12:22;20.10;99.90
44855;DHT22;30591;48.228;16.398;2022-07-17T02:14:48;20.20;99.90
44855;DHT22;30591;48.228;16.398;2022-07-17T02:17:15;20.10;99.90
44855;DHT22;30591;48.228;16.398;2022-07-17T02:19:42;20.10;99.90
44855;DHT22;30591;48.228;16.398;2022-07-17T02:22:09;20.10;99.90
44855;DHT22;30591;48.228;16.398;2022-07-17T02:24:36;20.10;99.90
44855;DHT22;30591;48.228;16.398;2022-07-17T02:27:03;20.20;99.90
44855;DHT22;30591;48.228;16.398;2022-07-17T02:29:30;20.20;99.90
44855;DHT22;30591;48.228;16.398;2022-07-17T02:31:57;20.10;99.90
44855;DHT22;30591;48.228;16.398;2022-07-17T02:34:23;20.10;99.90
44855;DHT22;30591;48.228;16.398;2022-07-17T02:36:50;20.10;99.90
44855;DHT22;30591;48.228;16.398;2022-07-17T02:39:17;20.10;99.90
44855;DHT22;30591;48.228;16.398;2022-07-17T02:41:44;20.00;99.90
44855;DHT22;30591;48.228;16.398;2022-07-17T02:44:11;20.10;99.90
44855;DHT22;30591;48.228;16.398;2022-07-17T02:46:38;20.10;99.90
44855;DHT22;30591;48.228;16.398;2022-07-17T02:49:05;20.00;99.90
44855;DHT22;30591;48.228;16.398;2022-07-17T02:51:32;20.00;99.90
44855;DHT22;30591;48.228;16.398;2022-07-17T02:53:59;19.80;99.90
44855;DHT22;30591;48.228;16.398;2022-07-17T02:56:26;19.90;99.90
44855;DHT22;30591;48.228;16.398;2022-07-17T02:58:53;20.10;99.90
44855;DHT22;30591;48.228;16.398;2022-07-17T03:01:20;20.00;99.90
44855;DHT22;30591;48.228;16.398;2022-07-17T03:03:48;20.00;99.90
44855;DHT22;30591;48.228;16.398;2022-07-17T03:06:15;20.00;99.90
44855;DHT22;30591;48.228;16.398;2022-07-17T03:08:41;20.00;99.90
44855;DHT22;30591;48.228;16.398;2022-07-17T03:11:08;19.50;99.90
44855;DHT22;30591;48.228;16.398;2022-07-17T03:13:35;19.60;99.90
44855;DHT22;30591;48.228;16.398;2022-07-17T03:16:02;19.60;99.90
44855;DHT22;30591;48.228;16.398;2022-07-17T03:18:30;19.60;99.90
44855;DHT22;30591;48.228;16.398;2022-07-17T03:20:57;19.60;99.90
44855;DHT22;30591;48.228;16.398;2022-07-17T03:23:24;19.70;99.90
44855;DHT22;30591;48.228;16.398;2022-07-17T03:25:50;19.70;99.90
44855;DHT22;30591;48.228;16.398;2022-07-17T03:28:18;19.60;99.90
44855;DHT22;30591;48.228;16.398;2022-07-17T03:30:45;19.80;99.90
44855;DHT22;30591;48.228;16.398;2022-07-17T03:33:12;19.80;99.90
44855;DHT22;30591;48.228;16.398;2022-07-17T03:35:39;19.40;99.90
44855;DHT22;30591;48.228;16.398;2022-07-17T03:38:07;19.20;99.90
44855;DHT22;30591;48.228;16.398;2022-07-17T03:40:34;19.40;99.90
44855;DHT22;30591;48.228;16.398;2022-07-17T03:43:01;19.20;99.90
44855;DHT22;30591;48.228;16.398;2022-07-17T03:45:28;19.30;99.90
44855;DHT22;30591;48.228;16.398;2022-07-17T03:47:54;19.40;99.90
44855;DHT22;30591;48.228;16.398;2022-07-17T03:50:21;19.10;99.90
44855;DHT22;30591;48.228;16.398;2022-07-17T03:52:48;19.40;99.90
44855;DHT22;30591;48.228;16.398;2022-07-17T03:55:15;19.20;99.90
44855;DHT22;30591;48.228;16.398;2022-07-17T03:57:42;19.30;99.90
44855;DHT22;30591;48.228;16.398;2022-07-17T04:00:09;19.10;99.90
44855;DHT22;30591;48.228;16.398;2022-07-17T04:02:39;18.60;99.90
44855;DHT22;30591;48.228;16.398;2022-07-17T04:05:06;18.50;99.90
44855;DHT22;30591;48.228;16.398;2022-07-17T04:07:40;18.50;99.90
44855;DHT22;30591;48.228;16.398;2022-07-17T04:10:10;17.90;99.90
44855;DHT22;30591;48.228;16.398;2022-07-17T04:12:37;18.10;99.90
44855;DHT22;30591;48.228;16.398;2022-07-17T04:15:05;18.30;99.90
44855;DHT22;30591;48.228;16.398;2022-07-17T04:17:32;18.80;99.90
44855;DHT22;30591;48.228;16.398;2022-07-17T04:19:59;18.90;99.90
44855;DHT22;30591;48.228;16.398;2022-07-17T04:22:26;19.00;99.90
44855;DHT22;30591;48.228;16.398;2022-07-17T04:24:53;19.00;99.90
44855;DHT22;30591;48.228;16.398;2022-07-17T04:27:20;19.20;99.90
44855;DHT22;30591;48.228;16.398;2022-07-17T04:29:47;19.20;99.90
44855;DHT22;30591;48.228;16.398;2022-07-17T04:32:14;19.10;99.90
44855;DHT22;30591;48.228;16.398;2022-07-17T04:34:41;19.40;99.90
44855;DHT22;30591;48.228;16.398;2022-07-17T04:37:08;19.60;99.90
44855;DHT22;30591;48.228;16.398;2022-07-17T04:39:34;19.70;99.90
44855;DHT22;30591;48.228;16.398;2022-07-17T04:42:01;19.90;99.90
44855;DHT22;30591;48.228;16.398;2022-07-17T04:44:28;20.00;99.90
44855;DHT22;30591;48.228;16.398;2022-07-17T04:46:55;20.00;99.90
44855;DHT22;30591;48.228;16.398;2022-07-17T04:49:23;19.80;99.90
44855;DHT22;30591;48.228;16.398;2022-07-17T04:51:50;19.80;99.90
44855;DHT22;30591;48.228;16.398;2022-07-17T04:54:17;20.00;99.90
44855;DHT22;30591;48.228;16.398;2022-07-17T04:56:44;20.10;99.90
44855;DHT22;30591;48.228;16.398;2022-07-17T04:59:11;20.10;99.90
44855;DHT22;30591;48.228;16.398;2022-07-17T05:01:38;20.10;99.90
44855;DHT22;30591;48.228;16.398;2022-07-17T05:04:05;20.20;99.90
44855;DHT22;30591;48.228;16.398;2022-07-17T05:06:31;20.20;99.90
44855;DHT22;30591;48.228;16.398;2022-07-17T05:08:58;19.90;99.90
44855;DHT22;30591;48.228;16.398;2022-07-17T05:11:25;19.90;99.90
44855;DHT22;30591;48.228;16.398;2022-07-17T05:13:52;20.30;99.90
44855;DHT22;30591;48.228;16.398;2022-07-17T05:16:19;20.40;99.90
44855;DHT22;30591;48.228;16.398;2022-07-17T05:18:46;20.30;99.90
44855;DHT22;30591;48.228;16.398;2022-07-17T05:21:13;19.70;99.90
44855;DHT22;30591;48.228;16.398;2022-07-17T05:23:41;19.50;99.90
44855;DHT22;30591;48.228;16.398;2022-07-17T05:26:08;19.90;99.90
44855;DHT22;30591;48.228;16.398;2022-07-17T05:28:35;20.30;99.90
44855;DHT22;30591;48.228;16.398;2022-07-17T05:31:04;20.50;99.90
44855;DHT22;30591;48.228;16.398;2022-07-17T05:33:31;20.30;99.90
44855;DHT22;30591;48.228;16.398;2022-07-17T05:35:58;20.00;99.90
44855;DHT22;30591;48.228;16.398;2022-07-17T05:38:25;19.60;99.90
44855;DHT22;30591;48.228;16.398;2022-07-17T05:40:52;19.50;99.90
44855;DHT22;30591;48.228;16.398;2022-07-17T05:43:19;19.60;99.90
44855;DHT22;30591;48.228;16.398;2022-07-17T05:45:46;19.60;99.90
44855;DHT22;30591;48.228;16.398;2022-07-17T05:48:13;19.60;99.90
44855;DHT22;30591;48.228;16.398;2022-07-17T05:50:40;19.70;99.90
44855;DHT22;30591;48.228;16.398;2022-07-17T05:53:06;20.20;99.90
44855;DHT22;30591;48.228;16.398;2022-07-17T05:55:33;20.20;99.90
44855;DHT22;30591;48.228;16.398;2022-07-17T05:58:00;19.90;99.90
44855;DHT22;30591;48.228;16.398;2022-07-17T06:00:27;20.00;99.90
44855;DHT22;30591;48.228;16.398;2022-07-17T06:02:54;20.00;99.90
44855;DHT22;30591;48.228;16.398;2022-07-17T06:05:21;20.10;99.90
44855;DHT22;30591;48.228;16.398;2022-07-17T06:07:48;20.20;99.90
44855;DHT22;30591;48.228;16.398;2022-07-17T06:10:15;20.30;99.90
44855;DHT22;30591;48.228;16.398;2022-07-17T06:12:42;20.20;99.90
44855;DHT22;30591;48.228;16.398;2022-07-17T06:15:09;20.40;99.90
44855;DHT22;30591;48.228;16.398;2022-07-17T06:17:36;20.20;99.90
44855;DHT22;30591;48.228;16.398;2022-07-17T06:20:09;20.50;99.90
44855;DHT22;30591;48.228;16.398;2022-07-17T06:22:36;20.60;99.90
44855;DHT22;30591;48.228;16.398;2022-07-17T06:25:03;20.60;99.90
44855;DHT22;30591;48.228;16.398;2022-07-17T06:27:30;20.70;99.90
44855;DHT22;30591;48.228;16.398;2022-07-17T06:29:57;20.80;99.90
44855;DHT22;30591;48.228;16.398;2022-07-17T06:32:24;20.90;99.90
44855;DHT22;30591;48.228;16.398;2022-07-17T06:34:51;21.30;99.90
44855;DHT22;30591;48.228;16.398;2022-07-17T06:37:19;21.40;99.90
44855;DHT22;30591;48.228;16.398;2022-07-17T06:39:45;20.80;99.90
44855;DHT22;30591;48.228;16.398;2022-07-17T06:42:12;21.00;99.90
44855;DHT22;30591;48.228;16.398;2022-07-17T06:44:39;21.20;99.90
44855;DHT22;30591;48.228;16.398;2022-07-17T06:47:06;21.10;99.90
44855;DHT22;30591;48.228;16.398;2022-07-17T06:49:33;21.00;99.90
44855;DHT22;30591;48.228;16.398;2022-07-17T06:52:00;20.90;99.90
44855;DHT22;30591;48.228;16.398;2022-07-17T06:54:27;21.10;99.90
44855;DHT22;30591;48.228;16.398;2022-07-17T06:56:54;21.20;99.90
44855;DHT22;30591;48.228;16.398;2022-07-17T06:59:21;21.40;99.90
44855;DHT22;30591;48.228;16.398;2022-07-17T07:01:48;21.00;99.90
44855;DHT22;30591;48.228;16.398;2022-07-17T07:04:15;21.10;99.90
44855;DHT22;30591;48.228;16.398;2022-07-17T07:06:42;21.30;99.90
44855;DHT22;30591;48.228;16.398;2022-07-17T07:09:09;21.00;99.90
44855;DHT22;30591;48.228;16.398;2022-07-17T07:11:42;20.90;99.90
44855;DHT22;30591;48.228;16.398;2022-07-17T07:14:10;21.10;99.90
44855;DHT22;30591;48.228;16.398;2022-07-17T07:16:37;21.40;99.90
44855;DHT22;30591;48.228;16.398;2022-07-17T07:19:04;21.90;99.90
44855;DHT22;30591;48.228;16.398;2022-07-17T07:21:31;22.20;99.90
44855;DHT22;30591;48.228;16.398;2022-07-17T07:23:58;21.90;99.90
44855;DHT22;30591;48.228;16.398;2022-07-17T07:26:25;21.60;99.90
44855;DHT22;30591;48.228;16.398;2022-07-17T07:28:52;21.60;99.90
44855;DHT22;30591;48.228;16.398;2022-07-17T07:31:19;21.60;99.90
44855;DHT22;30591;48.228;16.398;2022-07-17T07:33:46;21.80;99.90
44855;DHT22;30591;48.228;16.398;2022-07-17T07:36:13;22.00;99.90
44855;DHT22;30591;48.228;16.398;2022-07-17T07:38:45;22.00;99.90
44855;DHT22;30591;48.228;16.398;2022-07-17T07:41:12;21.80;99.90
44855;DHT22;30591;48.228;16.398;2022-07-17T07:43:39;21.60;99.90
44855;DHT22;30591;48.228;16.398;2022-07-17T07:46:06;21.50;99.90
44855;DHT22;30591;48.228;16.398;2022-07-17T07:48:33;21.80;99.90
44855;DHT22;30591;48.228;16.398;2022-07-17T07:51:00;21.60;99.90
44855;DHT22;30591;48.228;16.398;2022-07-17T07:53:27;21.70;99.90
44855;DHT22;30591;48.228;16.398;2022-07-17T07:55:54;21.90;99.90
44855;DHT22;30591;48.228;16.398;2022-07-17T07:58:21;21.90;99.90
44855;DHT22;30591;48.228;16.398;2022-07-17T08:00:48;22.20;99.90
44855;DHT22;30591;48.228;16.398;2022-07-17T08:03:15;22.10;99.90
44855;DHT22;30591;48.228;16.398;2022-07-17T08:05:48;22.30;99.90
44855;DHT22;30591;48.228;16.398;2022-07-17T08:08:15;22.00;99.90
44855;DHT22;30591;48.228;16.398;2022-07-17T08:10:42;22.20;99.90
44855;DHT22;30591;48.228;16.398;2022-07-17T08:13:09;22.00;99.90
44855;DHT22;30591;48.228;16.398;2022-07-17T08:15:36;21.90;99.90
44855;DHT22;30591;48.228;16.398;2022-07-17T08:18:03;21.60;99.90
44855;DHT22;30591;48.228;16.398;2022-07-17T08:20:30;21.80;99.90
44855;DHT22;30591;48.228;16.398;2022-07-17T08:22:58;21.70;99.90
44855;DHT22;30591;48.228;16.398;2022-07-17T08:25:33;21.50;99.90
44855;DHT22;30591;48.228;16.398;2022-07-17T08:28:05;21.80;99.90
44855;DHT22;30591;48.228;16.398;2022-07-17T08:30:32;22.00;99.90
44855;DHT22;30591;48.228;16.398;2022-07-17T08:33:03;22.20;99.90
44855;DHT22;30591;48.228;16.398;2022-07-17T08:35:30;22.00;99.90
44855;DHT22;30591;48.228;16.398;2022-07-17T08:37:58;22.20;99.90
44855;DHT22;30591;48.228;16.398;2022-07-17T08:40:29;22.10;99.90
44855;DHT22;30591;48.228;16.398;2022-07-17T08:42:58;22.30;99.90
44855;DHT22;30591;48.228;16.398;2022-07-17T08:45:26;22.20;99.90
44855;DHT22;30591;48.228;16.398;2022-07-17T08:47:54;22.10;99.90
44855;DHT22;30591;48.228;16.398;2022-07-17T08:50:26;22.10;99.90
44855;DHT22;30591;48.228;16.398;2022-07-17T08:52:54;22.10;99.90
44855;DHT22;30591;48.228;16.398;2022-07-17T08:55:21;22.50;99.90
44855;DHT22;30591;48.228;16.398;2022-07-17T08:57:49;22.30;99.90
44855;DHT22;30591;48.228;16.398;2022-07-17T09:00:18;22.30;99.90
44855;DHT22;30591;48.228;16.398;2022-07-17T09:03:07;22.50;99.90
44855;DHT22;30591;48.228;16.398;2022-07-17T09:05:38;22.50;99.90
44855;DHT22;30591;48.228;16.398;2022-07-17T09:08:07;22.80;99.90
44855;DHT22;30591;48.228;16.398;2022-07-17T09:10:38;22.40;99.90
44855;DHT22;30591;48.228;16.398;2022-07-17T09:13:18;22.00;99.90
44855;DHT22;30591;48.228;16.398;2022-07-17T09:15:47;22.30;99.90
44855;DHT22;30591;48.228;16.398;2022-07-17T09:18:15;22.60;99.90
44855;DHT22;30591;48.228;16.398;2022-07-17T09:20:54;22.80;99.90
44855;DHT22;30591;48.228;16.398;2022-07-17T09:23:24;23.00;99.90
44855;DHT22;30591;48.228;16.398;2022-07-17T09:25:53;22.90;99.90
44855;DHT22;30591;48.228;16.398;2022-07-17T09:28:21;23.00;99.90
44855;DHT22;30591;48.228;16.398;2022-07-17T09:30:54;22.90;99.90
44855;DHT22;30591;48.228;16.398;2022-07-17T09:33:24;22.80;99.90
44855;DHT22;30591;48.228;16.398;2022-07-17T09:36:08;22.70;99.90
44855;DHT22;30591;48.228;16.398;2022-07-17T09:38:41;23.00;99.90
44855;DHT22;30591;48.228;16.398;2022-07-17T09:46:15;23.30;99.90
44855;DHT22;30591;48.228;16.398;2022-07-17T09:48:44;22.90;99.90
44855;DHT22;30591;48.228;16.398;2022-07-17T09:51:20;23.30;99.90
44855;DHT22;30591;48.228;16.398;2022-07-17T09:53:50;23.30;99.90
44855;DHT22;30591;48.228;16.398;2022-07-17T09:56:18;23.50;99.90
44855;DHT22;30591;48.228;16.398;2022-07-17T09:58:51;23.80;99.90
44855;DHT22;30591;48.228;16.398;2022-07-17T10:01:19;23.40;99.40
44855;DHT22;30591;48.228;16.398;2022-07-17T10:03:47;23.60;98.80
44855;DHT22;30591;48.228;16.398;2022-07-17T10:06:21;23.50;99.50
44855;DHT22;30591;48.228;16.398;2022-07-17T10:08:48;23.70;99.30
44855;DHT22;30591;48.228;16.398;2022-07-17T10:11:16;24.10;99.70
44855;DHT22;30591;48.228;16.398;2022-07-17T10:13:46;24.20;98.80
44855;DHT22;30591;48.228;16.398;2022-07-17T10:16:14;24.20;99.10
44855;DHT22;30591;48.228;16.398;2022-07-17T10:18:49;24.50;98.60
44855;DHT22;30591;48.228;16.398;2022-07-17T10:21:19;24.40;97.40
44855;DHT22;30591;48.228;16.398;2022-07-17T10:24:06;24.00;97.20
44855;DHT22;30591;48.228;16.398;2022-07-17T10:26:38;24.00;97.30
44855;DHT22;30591;48.228;16.398;2022-07-17T10:31:52;24.40;97.80
44855;DHT22;30591;48.228;16.398;2022-07-17T10:34:41;24.40;98.10
44855;DHT22;30591;48.228;16.398;2022-07-17T10:37:23;24.70;97.70
44855;DHT22;30591;48.228;16.398;2022-07-17T10:39:54;24.60;97.50
44855;DHT22;30591;48.228;16.398;2022-07-17T10:45:27;24.70;94.30
44855;DHT22;30591;48.228;16.398;2022-07-17T10:50:25;24.50;92.10
44855;DHT22;30591;48.228;16.398;2022-07-17T10:53:00;24.70;92.50
44855;DHT22;30591;48.228;16.398;2022-07-17T10:55:28;25.10;92.30
44855;DHT22;30591;48.228;16.398;2022-07-17T10:57:56;24.70;90.80
44855;DHT22;30591;48.228;16.398;2022-07-17T11:00:24;25.00;90.40
44855;DHT22;30591;48.228;16.398;2022-07-17T11:02:52;25.10;90.10
44855;DHT22;30591;48.228;16.398;2022-07-17T11:05:21;25.30;90.80
44855;DHT22;30591;48.228;16.398;2022-07-17T11:07:51;25.30;91.10
44855;DHT22;30591;48.228;16.398;2022-07-17T11:10:20;24.80;91.70
44855;DHT22;30591;48.228;16.398;2022-07-17T11:12:47;25.30;91.50
44855;DHT22;30591;48.228;16.398;2022-07-17T11:15:14;25.20;91.70
44855;DHT22;30591;48.228;16.398;2022-07-17T11:17:45;25.30;91.70
44855;DHT22;30591;48.228;16.398;2022-07-17T11:20:13;25.30;91.10
44855;DHT22;30591;48.228;16.398;2022-07-17T11:22:40;25.30;91.50
44855;DHT22;30591;48.228;16.398;2022-07-17T11:25:08;25.30;89.10
44855;DHT22;30591;48.228;16.398;2022-07-17T11:27:35;25.00;88.90
44855;DHT22;30591;48.228;16.398;2022-07-17T11:30:03;25.40;88.20
44855;DHT22;30591;48.228;16.398;2022-07-17T11:32:35;25.30;87.10
44855;DHT22;30591;48.228;16.398;2022-07-17T11:35:24;25.30;88.20
44855;DHT22;30591;48.228;16.398;2022-07-17T11:38:07;25.20;89.10
44855;DHT22;30591;48.228;16.398;2022-07-17T11:40:35;25.60;86.80
44855;DHT22;30591;48.228;16.398;2022-07-17T11:43:10;25.60;86.00
44855;DHT22;30591;48.228;16.398;2022-07-17T11:45:43;25.70;85.40
44855;DHT22;30591;48.228;16.398;2022-07-17T11:48:10;26.00;85.00
44855;DHT22;30591;48.228;16.398;2022-07-17T11:50:37;26.10;85.60
44855;DHT22;30591;48.228;16.398;2022-07-17T11:53:05;26.20;85.20
44855;DHT22;30591;48.228;16.398;2022-07-17T11:55:37;26.40;84.90
44855;DHT22;30591;48.228;16.398;2022-07-17T11:58:04;26.30;86.40
44855;DHT22;30591;48.228;16.398;2022-07-17T12:00:31;26.40;85.80
44855;DHT22;30591;48.228;16.398;2022-07-17T12:03:00;26.40;86.80
44855;DHT22;30591;48.228;16.398;2022-07-17T12:05:29;26.30;87.70
44855;DHT22;30591;48.228;16.398;2022-07-17T12:07:56;25.80;87.70
44855;DHT22;30591;48.228;16.398;2022-07-17T12:10:24;25.60;87.50
44855;DHT22;30591;48.228;16.398;2022-07-17T12:12:57;26.20;88.20
44855;DHT22;30591;48.228;16.398;2022-07-17T12:15:44;26.10;86.40
44855;DHT22;30591;48.228;16.398;2022-07-17T12:18:21;26.30;82.90
44855;DHT22;30591;48.228;16.398;2022-07-17T12:20:51;26.00;82.10
44855;DHT22;30591;48.228;16.398;2022-07-17T12:23:38;26.10;81.00
44855;DHT22;30591;48.228;16.398;2022-07-17T12:26:11;26.50;79.80
44855;DHT22;30591;48.228;16.398;2022-07-17T12:28:39;26.50;79.40
44855;DHT22;30591;48.228;16.398;2022-07-17T12:31:07;26.40;80.70
44855;DHT22;30591;48.228;16.398;2022-07-17T12:33:34;26.80;81.30
44855;DHT22;30591;48.228;16.398;2022-07-17T12:36:01;26.90;80.10
44855;DHT22;30591;48.228;16.398;2022-07-17T12:38:29;26.50;80.20
44855;DHT22;30591;48.228;16.398;2022-07-17T12:40:55;26.40;80.40
44855;DHT22;30591;48.228;16.398;2022-07-17T12:43:24;26.70;80.70
44855;DHT22;30591;48.228;16.398;2022-07-17T12:45:52;26.50;78.80
44855;DHT22;30591;48.228;16.398;2022-07-17T12:48:19;26.40;79.10
44855;DHT22;30591;48.228;16.398;2022-07-17T12:50:47;26.50;80.90
44855;DHT22;30591;48.228;16.398;2022-07-17T12:53:14;26.80;80.30
44855;DHT22;30591;48.228;16.398;2022-07-17T12:55:40;26.90;80.90
44855;DHT22;30591;48.228;16.398;2022-07-17T12:58:07;26.70;79.40
44855;DHT22;30591;48.228;16.398;2022-07-17T13:00:34;26.80;79.50
44855;DHT22;30591;48.228;16.398;2022-07-17T13:03:02;27.20;78.90
44855;DHT22;30591;48.228;16.398;2022-07-17T13:05:29;27.00;78.10
44855;DHT22;30591;48.228;16.398;2022-07-17T13:07:56;26.80;78.00
44855;DHT22;30591;48.228;16.398;2022-07-17T13:10:25;26.70;79.30
44855;DHT22;30591;48.228;16.398;2022-07-17T13:12:52;26.90;79.50
44855;DHT22;30591;48.228;16.398;2022-07-17T13:15:19;26.80;77.70
44855;DHT22;30591;48.228;16.398;2022-07-17T13:17:53;27.40;77.70
44855;DHT22;30591;48.228;16.398;2022-07-17T13:20:20;27.40;78.10
44855;DHT22;30591;48.228;16.398;2022-07-17T13:22:48;27.70;76.70
44855;DHT22;30591;48.228;16.398;2022-07-17T13:25:15;27.40;78.00
44855;DHT22;30591;48.228;16.398;2022-07-17T13:27:42;27.20;77.20
44855;DHT22;30591;48.228;16.398;2022-07-17T13:30:10;27.40;77.50
44855;DHT22;30591;48.228;16.398;2022-07-17T13:32:37;27.40;77.50
44855;DHT22;30591;48.228;16.398;2022-07-17T13:35:06;27.40;77.50
44855;DHT22;30591;48.228;16.398;2022-07-17T13:37:33;27.70;77.30
44855;DHT22;30591;48.228;16.398;2022-07-17T13:40:00;27.70;76.40
44855;DHT22;30591;48.228;16.398;2022-07-17T13:42:27;27.50;74.90
44855;DHT22;30591;48.228;16.398;2022-07-17T13:44:54;27.40;75.20
44855;DHT22;30591;48.228;16.398;2022-07-17T13:47:21;28.00;76.80
44855;DHT22;30591;48.228;16.398;2022-07-17T13:49:48;27.60;76.90
44855;DHT22;30591;48.228;16.398;2022-07-17T13:52:15;27.60;77.30
44855;DHT22;30591;48.228;16.398;2022-07-17T13:54:42;28.10;76.50
44855;DHT22;30591;48.228;16.398;2022-07-17T13:57:09;28.50;74.70
44855;DHT22;30591;48.228;16.398;2022-07-17T13:59:37;28.70;73.50
44855;DHT22;30591;48.228;16.398;2022-07-17T14:02:04;28.00;73.90
44855;DHT22;30591;48.228;16.398;2022-07-17T14:04:32;28.10;73.30
44855;DHT22;30591;48.228;16.398;2022-07-17T14:06:59;27.90;74.30
44855;DHT22;30591;48.228;16.398;2022-07-17T14:09:26;28.50;72.90
44855;DHT22;30591;48.228;16.398;2022-07-17T14:11:53;29.10;71.90
44855;DHT22;30591;48.228;16.398;2022-07-17T14:14:20;28.40;73.30
44855;DHT22;30591;48.228;16.398;2022-07-17T14:16:47;28.40;72.80
44855;DHT22;30591;48.228;16.398;2022-07-17T14:19:14;28.50;72.40
44855;DHT22;30591;48.228;16.398;2022-07-17T14:21:42;28.20;72.20
44855;DHT22;30591;48.228;16.398;2022-07-17T14:24:09;28.30;72.60
44855;DHT22;30591;48.228;16.398;2022-07-17T14:26:37;28.40;73.00
44855;DHT22;30591;48.228;16.398;2022-07-17T14:29:04;28.90;72.40
44855;DHT22;30591;48.228;16.398;2022-07-17T14:31:31;29.20;72.30
44855;DHT22;30591;48.228;16.398;2022-07-17T14:33:59;28.40;71.00
44855;DHT22;30591;48.228;16.398;2022-07-17T14:36:26;28.40;71.20
44855;DHT22;30591;48.228;16.398;2022-07-17T14:38:53;28.10;71.70
44855;DHT22;30591;48.228;16.398;2022-07-17T14:41:20;28.40;71.70
44855;DHT22;30591;48.228;16.398;2022-07-17T14:43:48;28.30;72.20
44855;DHT22;30591;48.228;16.398;2022-07-17T14:46:15;28.40;72.70
44855;DHT22;30591;48.228;16.398;2022-07-17T14:48:42;28.40;72.80
44855;DHT22;30591;48.228;16.398;2022-07-17T14:51:09;28.30;72.50
44855;DHT22;30591;48.228;16.398;2022-07-17T14:53:36;28.80;72.60
44855;DHT22;30591;48.228;16.398;2022-07-17T14:56:05;29.00;71.30
44855;DHT22;30591;48.228;16.398;2022-07-17T14:58:32;29.00;70.80
44855;DHT22;30591;48.228;16.398;2022-07-17T15:00:59;28.60;71.90
44855;DHT22;30591;48.228;16.398;2022-07-17T15:03:30;29.30;71.20
44855;DHT22;30591;48.228;16.398;2022-07-17T15:05:57;28.60;70.10
44855;DHT22;30591;48.228;16.398;2022-07-17T15:08:24;28.60;70.40
44855;DHT22;30591;48.228;16.398;2022-07-17T15:10:51;28.60;71.00
44855;DHT22;30591;48.228;16.398;2022-07-17T15:13:18;28.50;71.40
44855;DHT22;30591;48.228;16.398;2022-07-17T15:15:45;28.60;70.40
44855;DHT22;30591;48.228;16.398;2022-07-17T15:18:12;28.80;70.90
44855;DHT22;30591;48.228;16.398;2022-07-17T15:20:39;28.30;70.70
44855;DHT22;30591;48.228;16.398;2022-07-17T15:23:09;28.60;70.60
44855;DHT22;30591;48.228;16.398;2022-07-17T15:25:36;29.00;70.90
44855;DHT22;30591;48.228;16.398;2022-07-17T15:28:03;28.70;70.90
44855;DHT22;30591;48.228;16.398;2022-07-17T15:30:30;28.70;70.90
44855;DHT22;30591;48.228;16.398;2022-07-17T15:32:57;29.00;71.00
44855;DHT22;30591;48.228;16.398;2022-07-17T15:35:24;28.80;70.20